createdAt,value
2023-01-28T00:01:17.298Z,100167.72
2023-01-28T00:03:44.437Z,100163.72
2023-01-28T00:06:14.753Z,100166.91
2023-01-28T00:08:42.065Z,100166.53
2023-01-28T00:11:11.152Z,100168.56
2023-01-28T00:13:38.307Z,100167.53
2023-01-28T00:16:08.962Z,100165.66
2023-01-28T00:18:36.022Z,100170.97
2023-01-28T00:21:08.528Z,100169.34
2023-01-28T00:23:37.005Z,100178.56
2023-01-28T00:26:06.605Z,100170.09
2023-01-28T00:28:33.769Z,100175.31
2023-01-28T00:31:06.589Z,100183.84
2023-01-28T00:33:33.837Z,100180.47
2023-01-28T00:36:06.704Z,100178.94
2023-01-28T00:38:34.761Z,100174.69
2023-01-28T00:41:13.496Z,100175.75
2023-01-28T00:43:41.472Z,100180.00
2023-01-28T00:46:10.712Z,100173.69
2023-01-28T00:48:38.919Z,100177.31
2023-01-28T00:51:06.440Z,100171.88
2023-01-28T00:53:36.133Z,100174.75
2023-01-28T00:56:03.789Z,100165.81
2023-01-28T00:58:33.009Z,100163.19
2023-01-28T01:01:08.542Z,100169.25
2023-01-28T01:03:35.695Z,100165.47
2023-01-28T01:06:02.724Z,100170.38
2023-01-28T01:08:34.975Z,100173.25
2023-01-28T01:11:06.497Z,100176.09
2023-01-28T01:13:37.013Z,100176.22
2023-01-28T01:16:18.343Z,100175.13
2023-01-28T01:18:48.932Z,100179.69
2023-01-28T01:21:19.245Z,100182.25
2023-01-28T01:23:46.715Z,100186.22
2023-01-28T01:26:14.420Z,100181.19
2023-01-28T01:28:41.656Z,100176.91
2023-01-28T01:31:15.004Z,100177.97
2023-01-28T01:33:42.635Z,100179.34
2023-01-28T01:36:10.638Z,100180.34
2023-01-28T01:38:38.047Z,100173.94
2023-01-28T01:41:05.980Z,100175.28
2023-01-28T01:43:51.280Z,100175.00
2023-01-28T01:46:36.214Z,100178.16
2023-01-28T01:49:23.742Z,100183.00
2023-01-28T01:51:58.657Z,100181.59
2023-01-28T01:54:29.763Z,100190.00
2023-01-28T01:56:58.235Z,100177.47
2023-01-28T01:59:31.815Z,100178.28
2023-01-28T02:02:05.261Z,100191.75
2023-01-28T02:04:34.893Z,100182.53
2023-01-28T02:07:03.204Z,100158.00
2023-01-28T02:09:36.312Z,100186.31
2023-01-28T02:12:11.799Z,100182.09
2023-01-28T02:14:45.400Z,100181.53
2023-01-28T02:17:12.273Z,100196.00
2023-01-28T02:19:56.219Z,100192.69
2023-01-28T02:22:57.232Z,100191.19
2023-01-28T02:25:45.498Z,100196.72
2023-01-28T02:28:29.959Z,100185.16
2023-01-28T02:31:11.709Z,100185.56
2023-01-28T02:33:46.425Z,100185.44
2023-01-28T02:36:22.302Z,100193.19
2023-01-28T02:38:52.820Z,100188.88
2023-01-28T02:41:47.215Z,100183.28
2023-01-28T02:44:14.655Z,100190.94
2023-01-28T02:47:00.019Z,100183.66
2023-01-28T02:49:33.861Z,100182.53
2023-01-28T02:52:10.761Z,100180.94
2023-01-28T02:54:55.954Z,100179.06
2023-01-28T02:57:34.654Z,100177.44
2023-01-28T03:00:15.904Z,100180.94
2023-01-28T03:03:00.901Z,100178.38
2023-01-28T03:05:38.879Z,100172.59
2023-01-28T03:08:28.350Z,100171.22
2023-01-28T03:11:16.265Z,100174.25
2023-01-28T03:14:03.181Z,100181.47
2023-01-28T03:16:51.619Z,100176.63
2023-01-28T03:19:38.015Z,100180.91
2023-01-28T03:22:24.285Z,100183.16
2023-01-28T03:25:11.810Z,100178.28
2023-01-28T03:28:10.182Z,100178.50
2023-01-28T03:31:01.679Z,100174.69
2023-01-28T03:33:56.780Z,100182.44
2023-01-28T03:36:43.045Z,100187.91
2023-01-28T03:39:23.176Z,100186.75
2023-01-28T03:42:18.788Z,100188.72
2023-01-28T03:44:57.634Z,100192.53
2023-01-28T03:47:29.997Z,100196.03
2023-01-28T03:50:02.299Z,100192.78
2023-01-28T03:52:35.606Z,100188.81
2023-01-28T03:55:28.307Z,100201.47
2023-01-28T03:57:55.243Z,100203.56
2023-01-28T04:00:23.432Z,100210.75
2023-01-28T04:02:50.562Z,100195.53
2023-01-28T04:05:20.747Z,100204.38
2023-01-28T04:07:51.836Z,100201.00
2023-01-28T04:10:43.948Z,100205.06
2023-01-28T04:13:25.499Z,100215.16
2023-01-28T04:15:52.847Z,100217.13
2023-01-28T04:18:20.989Z,100214.94
2023-01-28T04:20:50.314Z,100211.09
2023-01-28T04:23:18.023Z,100210.28
2023-01-28T04:25:45.164Z,100208.66
2023-01-28T04:28:12.017Z,100210.97
2023-01-28T04:30:38.870Z,100210.84
2023-01-28T04:33:12.657Z,100219.09
2023-01-28T04:36:02.896Z,100216.78
2023-01-28T04:38:52.483Z,100216.41
2023-01-28T04:41:39.381Z,100220.34
2023-01-28T04:44:21.571Z,100219.78
2023-01-28T04:47:01.626Z,100219.78
2023-01-28T04:49:42.271Z,100221.63
2023-01-28T04:52:31.737Z,100220.25
2023-01-28T04:55:16.860Z,100228.38
2023-01-28T04:57:46.771Z,100225.03
2023-01-28T05:00:13.946Z,100219.31
2023-01-28T05:02:40.819Z,100224.41
2023-01-28T05:05:09.145Z,100225.03
2023-01-28T05:07:58.926Z,100220.97
2023-01-28T05:10:27.550Z,100228.81
2023-01-28T05:12:55.265Z,100217.66
2023-01-28T05:15:22.465Z,100229.53
2023-01-28T05:17:50.717Z,100230.13
2023-01-28T05:20:21.796Z,100229.53
2023-01-28T05:22:49.899Z,100229.78
2023-01-28T05:25:20.438Z,100227.69
2023-01-28T05:27:52.352Z,100230.13
2023-01-28T05:30:20.264Z,100232.91
2023-01-28T05:32:47.617Z,100236.25
2023-01-28T05:35:17.875Z,100237.19
2023-01-28T05:37:44.995Z,100227.66
2023-01-28T05:40:14.397Z,100232.75
2023-01-28T05:42:41.723Z,100222.44
2023-01-28T05:45:21.516Z,100237.38
2023-01-28T05:48:11.374Z,100237.59
2023-01-28T05:50:59.101Z,100243.47
2023-01-28T05:53:33.468Z,100244.41
2023-01-28T05:56:00.804Z,100246.66
2023-01-28T05:58:32.203Z,100242.56
2023-01-28T06:01:02.477Z,100249.19
2023-01-28T06:03:37.989Z,100247.81
2023-01-28T06:06:05.054Z,100249.59
2023-01-28T06:08:32.117Z,100241.81
2023-01-28T06:10:59.962Z,100234.84
2023-01-28T06:13:28.997Z,100252.50
2023-01-28T06:16:16.117Z,100259.66
2023-01-28T06:18:58.014Z,100266.63
2023-01-28T06:21:25.025Z,100262.13
2023-01-28T06:23:51.859Z,100270.94
2023-01-28T06:26:18.864Z,100273.38
2023-01-28T06:28:47.915Z,100288.69
2023-01-28T06:31:14.779Z,100283.13
2023-01-28T06:33:41.645Z,100282.66
2023-01-28T06:36:08.855Z,100282.63
2023-01-28T06:38:35.891Z,100279.81
2023-01-28T06:41:03.070Z,100291.91
2023-01-28T06:43:31.246Z,100291.69
2023-01-28T06:45:59.113Z,100282.50
2023-01-28T06:48:26.941Z,100300.72
2023-01-28T06:50:54.271Z,100299.34
2023-01-28T06:53:21.674Z,100300.72
2023-01-28T06:55:48.544Z,100302.09
2023-01-28T06:58:15.395Z,100300.72
2023-01-28T07:00:42.228Z,100305.94
2023-01-28T07:03:09.353Z,100306.06
2023-01-28T07:05:37.620Z,100309.28
2023-01-28T07:08:04.511Z,100313.91
2023-01-28T07:10:31.332Z,100312.72
2023-01-28T07:12:58.128Z,100315.94
2023-01-28T07:15:24.863Z,100316.75
2023-01-28T07:17:51.774Z,100319.06
2023-01-28T07:20:18.944Z,100316.84
2023-01-28T07:22:47.269Z,100330.44
2023-01-28T07:25:15.424Z,100322.66
2023-01-28T07:27:51.405Z,100326.38
2023-01-28T07:30:19.724Z,100326.41
2023-01-28T07:32:47.060Z,100334.97
2023-01-28T07:35:14.434Z,100338.66
2023-01-28T07:37:41.410Z,100334.63
2023-01-28T07:40:09.022Z,100336.44
2023-01-28T07:42:36.092Z,100339.56
2023-01-28T07:45:07.265Z,100338.53
2023-01-28T07:47:34.327Z,100347.03
2023-01-28T07:50:01.192Z,100351.25
2023-01-28T07:52:28.567Z,100354.72
2023-01-28T07:54:55.379Z,100359.53
2023-01-28T07:57:24.964Z,100358.81
2023-01-28T07:59:51.904Z,100359.28
2023-01-28T08:02:19.201Z,100365.47
2023-01-28T08:04:47.652Z,100359.28
2023-01-28T08:07:14.508Z,100368.38
2023-01-28T08:09:41.342Z,100357.41
2023-01-28T08:12:08.245Z,100367.16
2023-01-28T08:14:35.474Z,100361.13
2023-01-28T08:17:02.650Z,100363.59
2023-01-28T08:19:30.060Z,100367.69
2023-01-28T08:21:56.934Z,100360.06
2023-01-28T08:24:23.786Z,100363.25
2023-01-28T08:26:50.522Z,100368.59
2023-01-28T08:29:17.355Z,100365.72
2023-01-28T08:31:44.302Z,100365.69
2023-01-28T08:34:11.195Z,100367.78
2023-01-28T08:36:38.000Z,100371.53
2023-01-28T08:39:06.927Z,100365.94
2023-01-28T08:41:33.721Z,100374.28
2023-01-28T08:44:00.590Z,100369.81
2023-01-28T08:46:27.502Z,100373.66
2023-01-28T08:48:54.327Z,100379.78
2023-01-28T08:51:22.646Z,100374.19
2023-01-28T08:53:49.564Z,100376.94
2023-01-28T08:56:16.779Z,100379.66
2023-01-28T08:58:45.142Z,100383.66
2023-01-28T09:01:12.038Z,100399.13
2023-01-28T09:03:38.864Z,100395.94
2023-01-28T09:06:06.742Z,100395.81
2023-01-28T09:08:33.738Z,100405.81
2023-01-28T09:11:01.789Z,100411.75
2023-01-28T09:13:28.951Z,100397.38
2023-01-28T09:15:56.166Z,100394.94
2023-01-28T09:18:23.299Z,100399.00
2023-01-28T09:20:50.164Z,100395.75
2023-01-28T09:23:18.322Z,100404.94
2023-01-28T09:25:45.207Z,100405.81
2023-01-28T09:28:12.421Z,100413.34
2023-01-28T09:30:39.872Z,100399.00
2023-01-28T09:33:07.323Z,100411.59
2023-01-28T09:45:17.805Z,100418.47
2023-01-28T09:47:54.556Z,100414.78
2023-01-28T09:50:35.369Z,100416.19
2023-01-28T09:53:18.024Z,100416.41
2023-01-28T09:55:49.813Z,100418.22
2023-01-28T09:58:18.525Z,100413.84
2023-01-28T10:00:51.251Z,100407.91
2023-01-28T10:03:42.868Z,100404.25
2023-01-28T10:06:34.069Z,100414.97
2023-01-28T10:09:43.039Z,100407.66
2023-01-28T10:12:57.074Z,100414.00
2023-01-28T10:15:53.916Z,100415.78
2023-01-28T10:18:31.091Z,100410.50
2023-01-28T10:21:24.518Z,100418.94
2023-01-28T10:24:18.787Z,100409.75
2023-01-28T10:26:46.063Z,100416.72
2023-01-28T10:29:19.713Z,100411.72
2023-01-28T10:31:54.194Z,100412.53
2023-01-28T10:34:22.423Z,100400.75
2023-01-28T10:36:50.533Z,100407.00
2023-01-28T10:39:21.732Z,100406.91
2023-01-28T10:41:57.459Z,100413.88
2023-01-28T10:44:34.767Z,100413.22
2023-01-28T10:47:07.900Z,100413.81
2023-01-28T10:49:41.605Z,100417.13
2023-01-28T10:52:15.880Z,100413.63
2023-01-28T10:54:42.905Z,100415.63
2023-01-28T10:57:16.773Z,100417.13
2023-01-28T10:59:43.984Z,100415.38
2023-01-28T11:02:33.594Z,100411.53
2023-01-28T11:05:23.099Z,100409.03
2023-01-28T11:07:50.235Z,100414.22
2023-01-28T11:10:35.839Z,100404.03
2023-01-28T11:13:05.164Z,100406.81
2023-01-28T11:15:33.113Z,100406.31
2023-01-28T11:18:04.096Z,100414.81
2023-01-28T11:20:37.729Z,100406.78
2023-01-28T11:23:05.678Z,100415.44
2023-01-28T11:25:35.558Z,100417.31
2023-01-28T11:28:06.281Z,100398.13
2023-01-28T11:30:36.740Z,100412.19
2023-01-28T11:33:23.839Z,100404.72
2023-01-28T11:35:58.953Z,100407.72
2023-01-28T11:38:26.636Z,100404.81
2023-01-28T11:40:55.417Z,100409.16
2023-01-28T11:43:27.124Z,100410.53
2023-01-28T11:46:05.417Z,100400.03
2023-01-28T11:48:44.301Z,100412.31
2023-01-28T11:51:14.069Z,100410.69
2023-01-28T11:53:49.499Z,100407.56
2023-01-28T11:56:29.562Z,100406.25
2023-01-28T11:59:25.046Z,100412.13
2023-01-28T12:02:06.343Z,100422.63
2023-01-28T12:05:11.314Z,100420.28
2023-01-28T12:08:17.278Z,100427.19
2023-01-28T12:11:20.100Z,100422.31
2023-01-28T12:14:06.299Z,100407.94
2023-01-28T12:16:44.961Z,100418.56
2023-01-28T12:19:26.524Z,100420.88
2023-01-28T12:22:27.352Z,100416.94
2023-01-28T12:25:34.018Z,100424.59
2023-01-28T12:28:25.777Z,100421.38
2023-01-28T12:31:18.454Z,100416.44
2023-01-28T12:34:04.133Z,100419.47
2023-01-28T12:36:46.196Z,100415.59
2023-01-28T12:39:24.679Z,100418.47
2023-01-28T12:42:41.251Z,100412.75
2023-01-28T12:45:33.554Z,100423.28
2023-01-28T12:48:06.874Z,100416.72
2023-01-28T12:50:48.969Z,100418.84
2023-01-28T12:53:50.479Z,100419.19
2023-01-28T12:56:37.868Z,100421.78
2023-01-28T12:59:13.005Z,100415.22
2023-01-28T13:01:47.786Z,100425.41
2023-01-28T13:04:26.870Z,100421.75
2023-01-28T13:07:08.012Z,100417.53
2023-01-28T13:09:37.291Z,100423.50
2023-01-28T13:12:05.420Z,100423.03
2023-01-28T13:14:33.684Z,100422.75
2023-01-28T13:17:26.024Z,100424.13
2023-01-28T13:19:52.849Z,100434.38
2023-01-28T13:22:36.153Z,100434.66
2023-01-28T13:25:21.275Z,100435.56
2023-01-28T13:28:06.121Z,100429.00
2023-01-28T13:30:36.128Z,100437.53
2023-01-28T13:33:06.458Z,100436.50
2023-01-28T13:35:41.220Z,100448.97
2023-01-28T13:38:14.143Z,100444.53
2023-01-28T13:40:41.940Z,100454.41
2023-01-28T13:43:32.624Z,100454.63
2023-01-28T13:46:02.500Z,100456.16
2023-01-28T13:48:52.652Z,100454.28
2023-01-28T13:51:40.859Z,100459.22
2023-01-28T13:54:19.004Z,100451.03
2023-01-28T13:57:01.162Z,100463.13
2023-01-28T13:59:46.418Z,100453.06
2023-01-28T14:02:28.404Z,100463.16
2023-01-28T14:05:18.697Z,100470.88
2023-01-28T14:08:08.392Z,100468.09
2023-01-28T14:11:11.726Z,100478.22
2023-01-28T14:14:01.619Z,100465.97
2023-01-28T14:16:53.181Z,100481.78
2023-01-28T14:19:27.653Z,100482.47
2023-01-28T14:21:54.878Z,100491.81
2023-01-28T14:24:21.906Z,100492.09
2023-01-28T14:26:48.767Z,100488.75
2023-01-28T14:29:46.259Z,100496.94
2023-01-28T14:32:20.000Z,100497.28
2023-01-28T14:34:48.139Z,100493.84
2023-01-28T14:37:19.306Z,100501.03
2023-01-28T14:39:57.152Z,100497.09
2023-01-28T14:42:31.173Z,100505.22
2023-01-28T14:45:21.002Z,100499.63
2023-01-28T14:48:07.577Z,100496.34
2023-01-28T14:51:06.780Z,100497.91
2023-01-28T14:54:04.909Z,100500.38
2023-01-28T14:56:58.370Z,100501.97
2023-01-28T14:59:37.684Z,100501.41
2023-01-28T15:02:19.189Z,100510.31
2023-01-28T15:04:46.052Z,100505.41
2023-01-28T15:07:27.300Z,100502.66
2023-01-28T15:10:18.380Z,100500.56
2023-01-28T15:13:07.757Z,100505.59
2023-01-28T15:15:37.027Z,100513.66
2023-01-28T15:18:28.647Z,100502.47
2023-01-28T15:20:56.921Z,100518.72
2023-01-28T15:23:37.385Z,100520.16
2023-01-28T15:26:15.463Z,100522.09
2023-01-28T15:28:45.089Z,100533.34
2023-01-28T15:31:23.918Z,100532.41
2023-01-28T15:34:18.782Z,100536.03
2023-01-28T15:36:47.841Z,100538.09
2023-01-28T15:39:16.832Z,100541.38
2023-01-28T15:41:47.796Z,100547.66
2023-01-28T15:44:20.505Z,100554.75
2023-01-28T15:46:47.411Z,100552.56
2023-01-28T15:49:16.305Z,100546.97
2023-01-28T15:51:48.760Z,100556.13
2023-01-28T15:54:15.587Z,100553.09
2023-01-28T15:56:42.603Z,100549.59
2023-01-28T15:59:16.401Z,100554.16
2023-01-28T16:01:43.547Z,100558.09
2023-01-28T16:04:30.583Z,100560.03
2023-01-28T16:07:04.526Z,100559.44
2023-01-28T16:09:34.321Z,100562.47
2023-01-28T16:12:11.131Z,100564.03
2023-01-28T16:14:45.450Z,100567.50
2023-01-28T16:17:19.007Z,100577.47
2023-01-28T16:19:49.505Z,100569.66
2023-01-28T16:22:39.886Z,100576.69
2023-01-28T16:25:28.043Z,100581.25
2023-01-28T16:27:56.006Z,100569.97
2023-01-28T16:30:23.240Z,100583.69
2023-01-28T16:32:50.292Z,100583.69
2023-01-28T16:35:20.738Z,100582.53
2023-01-28T16:37:48.820Z,100589.97
2023-01-28T16:40:18.763Z,100584.03
2023-01-28T16:42:45.922Z,100591.13
2023-01-28T16:45:21.486Z,100597.84
2023-01-28T16:47:48.303Z,100595.78
2023-01-28T16:50:16.597Z,100606.22
2023-01-28T16:52:44.968Z,100605.06
2023-01-28T16:55:15.030Z,100608.06
2023-01-28T16:57:43.369Z,100610.44
2023-01-28T17:00:23.150Z,100610.75
2023-01-28T17:02:51.247Z,100615.31
2023-01-28T17:05:21.468Z,100616.69
2023-01-28T17:07:49.433Z,100621.56
2023-01-28T17:10:17.893Z,100623.41
2023-01-28T17:12:47.501Z,100616.13
2023-01-28T17:15:14.863Z,100616.56
2023-01-28T17:17:41.806Z,100626.66
2023-01-28T17:20:09.648Z,100624.34
2023-01-28T17:22:36.583Z,100624.91
2023-01-28T17:25:03.437Z,100625.03
2023-01-28T17:27:30.318Z,100628.00
2023-01-28T17:29:57.260Z,100625.97
2023-01-28T17:32:24.219Z,100628.78
2023-01-28T17:34:51.049Z,100627.41
2023-01-28T17:37:17.902Z,100628.78
2023-01-28T17:39:44.651Z,100631.56
2023-01-28T17:42:11.456Z,100633.91
2023-01-28T17:44:39.111Z,100636.88
2023-01-28T17:47:05.957Z,100640.63
2023-01-28T17:49:32.735Z,100644.13
2023-01-28T17:51:59.515Z,100641.78
2023-01-28T17:54:26.993Z,100645.75
2023-01-28T17:56:54.094Z,100639.56
2023-01-28T17:59:22.642Z,100648.53
2023-01-28T18:01:54.557Z,100641.91
2023-01-28T18:04:21.415Z,100650.28
2023-01-28T18:06:49.282Z,100666.06
2023-01-28T18:09:16.143Z,100661.75
2023-01-28T18:11:43.003Z,100661.88
2023-01-28T18:14:09.730Z,100666.75
2023-01-28T18:16:36.504Z,100668.06
2023-01-28T18:19:03.470Z,100664.31
2023-01-28T18:21:51.231Z,100670.34
2023-01-28T18:24:19.362Z,100670.84
2023-01-28T18:26:46.205Z,100671.97
2023-01-28T18:29:16.966Z,100674.69
2023-01-28T18:31:44.308Z,100660.13
2023-01-28T18:34:11.698Z,100672.00
2023-01-28T18:36:38.490Z,100667.00
2023-01-28T18:39:05.310Z,100670.38
2023-01-28T18:41:32.136Z,100660.03
2023-01-28T18:43:58.891Z,100666.44
2023-01-28T18:46:25.714Z,100660.28
2023-01-28T18:48:52.584Z,100669.81
2023-01-28T18:51:30.046Z,100666.22
2023-01-28T18:54:01.959Z,100665.75
2023-01-28T18:56:29.732Z,100666.19
2023-01-28T18:58:58.279Z,100662.81
2023-01-28T19:01:25.341Z,100669.69
2023-01-28T19:03:54.169Z,100667.13
2023-01-28T19:06:20.891Z,100664.47
2023-01-28T19:08:53.704Z,100671.88
2023-01-28T19:11:21.999Z,100684.09
2023-01-28T19:13:49.002Z,100675.28
2023-01-28T19:16:16.086Z,100682.72
2023-01-28T19:18:43.355Z,100682.25
2023-01-28T19:21:10.217Z,100685.16
2023-01-28T19:23:49.100Z,100683.19
2023-01-28T19:26:21.160Z,100693.19
2023-01-28T19:28:49.461Z,100695.63
2023-01-28T19:31:18.948Z,100696.91
2023-01-28T19:33:46.980Z,100692.25
2023-01-28T19:36:14.478Z,100709.69
2023-01-28T19:38:41.996Z,100714.09
2023-01-28T19:41:08.975Z,100709.94
2023-01-28T19:43:36.431Z,100713.63
2023-01-28T19:46:06.080Z,100716.66
2023-01-28T19:48:33.867Z,100721.34
2023-01-28T19:51:09.308Z,100730.50
2023-01-28T19:53:36.871Z,100738.50
2023-01-28T19:56:06.344Z,100731.31
2023-01-28T19:58:41.822Z,100740.06
2023-01-28T20:01:14.486Z,100737.00
2023-01-28T20:03:41.513Z,100736.88
2023-01-28T20:06:16.753Z,100744.13
2023-01-28T20:08:44.546Z,100742.34
2023-01-28T20:11:16.210Z,100741.97
2023-01-28T20:13:45.820Z,100742.59
2023-01-28T20:16:16.757Z,100740.84
2023-01-28T20:18:43.591Z,100747.09
2023-01-28T20:21:10.445Z,100749.22
2023-01-28T20:23:37.276Z,100749.66
2023-01-28T20:26:04.102Z,100745.47
2023-01-28T20:28:30.973Z,100747.56
2023-01-28T20:30:57.935Z,100758.75
2023-01-28T20:33:24.756Z,100742.66
2023-01-28T20:35:51.587Z,100753.84
2023-01-28T20:38:18.313Z,100759.84
2023-01-28T20:40:46.147Z,100750.81
2023-01-28T20:43:12.921Z,100754.50
2023-01-28T20:45:39.684Z,100762.91
2023-01-28T20:48:06.805Z,100771.72
2023-01-28T20:50:35.017Z,100770.47
2023-01-28T20:53:01.884Z,100770.00
2023-01-28T20:55:28.811Z,100773.81
2023-01-28T20:57:55.659Z,100776.53
2023-01-28T21:00:23.237Z,100772.66
2023-01-28T21:02:50.255Z,100777.63
2023-01-28T21:05:17.155Z,100787.53
2023-01-28T21:07:43.880Z,100794.41
2023-01-28T21:10:11.349Z,100791.97
2023-01-28T21:12:39.309Z,100794.97
2023-01-28T21:15:08.024Z,100796.59
2023-01-28T21:17:34.871Z,100794.03
2023-01-28T21:20:01.614Z,100788.78
2023-01-28T21:22:29.847Z,100801.94
2023-01-28T21:24:56.635Z,100800.69
2023-01-28T21:27:23.488Z,100805.22
2023-01-28T21:29:52.958Z,100815.19
2023-01-28T21:32:22.950Z,100834.31
2023-01-28T21:34:51.533Z,100845.84
2023-01-28T21:37:22.335Z,100849.69
2023-01-28T21:39:50.299Z,100841.75
2023-01-28T21:42:17.265Z,100848.28
2023-01-28T21:44:44.343Z,100854.94
2023-01-28T21:47:11.085Z,100853.53
2023-01-28T21:49:37.887Z,100866.94
2023-01-28T21:52:06.606Z,100860.25
2023-01-28T21:54:34.714Z,100870.72
2023-01-28T21:57:01.598Z,100866.81
2023-01-28T21:59:28.559Z,100876.25
2023-01-28T22:02:13.063Z,100877.16
2023-01-28T22:04:41.940Z,100881.75
2023-01-28T22:07:12.263Z,100877.97
2023-01-28T22:09:39.568Z,100886.88
2023-01-28T22:12:08.167Z,100894.22
2023-01-28T22:14:35.992Z,100886.66
2023-01-28T22:17:04.429Z,100888.38
2023-01-28T22:19:31.332Z,100887.03
2023-01-28T22:21:58.034Z,100885.78
2023-01-28T22:24:25.136Z,100888.41
2023-01-28T22:26:53.086Z,100876.44
2023-01-28T22:29:21.116Z,100884.78
2023-01-28T22:31:53.264Z,100891.53
2023-01-28T22:34:21.524Z,100878.28
2023-01-28T22:36:49.420Z,100880.75
2023-01-28T22:39:17.434Z,100885.28
2023-01-28T22:41:44.862Z,100888.59
2023-01-28T22:44:12.167Z,100888.34
2023-01-28T22:46:39.312Z,100883.53
2023-01-28T22:49:06.353Z,100887.38
2023-01-28T22:51:35.121Z,100873.41
2023-01-28T22:54:02.586Z,100876.47
2023-01-28T22:56:30.694Z,100881.34
2023-01-28T22:59:02.511Z,100880.50
2023-01-28T23:01:30.225Z,100885.53
2023-01-28T23:03:56.999Z,100879.22
2023-01-28T23:06:26.584Z,100877.53
2023-01-28T23:08:54.518Z,100875.78
2023-01-28T23:11:28.360Z,100881.09
2023-01-28T23:14:19.632Z,100873.69
2023-01-28T23:17:06.078Z,100876.59
2023-01-28T23:19:51.655Z,100869.38
2023-01-28T23:22:46.520Z,100874.38
2023-01-28T23:25:13.848Z,100872.41
2023-01-28T23:27:41.180Z,100874.38
2023-01-28T23:30:10.311Z,100879.84
2023-01-28T23:33:05.033Z,100878.94
2023-01-28T23:35:32.783Z,100883.34
2023-01-28T23:37:59.639Z,100882.06
2023-01-28T23:40:27.350Z,100881.63
2023-01-28T23:42:55.280Z,100882.88
2023-01-28T23:45:22.681Z,100878.56
2023-01-28T23:47:49.843Z,100884.03
2023-01-28T23:50:17.212Z,100878.91
2023-01-28T23:52:44.362Z,100882.53
2023-01-28T23:55:11.245Z,100879.16
2023-01-28T23:57:38.097Z,100887.78
